sensor_id;sensor_type;location;lat;lon;timestamp;temperature;humidity
10883;DHT22;5494;51.796;10.952;2023-05-07T00:01:01;9.30;99.90
10883;DHT22;5494;51.796;10.952;2023-05-07T00:03:29;9.40;99.90
10883;DHT22;5494;51.796;10.952;2023-05-07T00:05:58;9.30;99.90
10883;DHT22;5494;51.796;10.952;2023-05-07T00:08:26;9.40;99.90
10883;DHT22;5494;51.796;10.952;2023-05-07T00:10:54;9.40;99.90
10883;DHT22;5494;51.796;10.952;2023-05-07T00:13:22;9.30;99.90
10883;DHT22;5494;51.796;10.952;2023-05-07T00:15:51;9.20;99.90
10883;DHT22;5494;51.796;10.952;2023-05-07T00:18:18;9.20;99.90
10883;DHT22;5494;51.796;10.952;2023-05-07T00:20:49;9.30;99.90
10883;DHT22;5494;51.796;10.952;2023-05-07T00:23:18;9.30;99.90
10883;DHT22;5494;51.796;10.952;2023-05-07T00:25:46;8.80;99.90
10883;DHT22;5494;51.796;10.952;2023-05-07T00:28:14;9.20;99.90
10883;DHT22;5494;51.796;10.952;2023-05-07T00:30:42;9.30;99.90
10883;DHT22;5494;51.796;10.952;2023-05-07T00:33:10;9.20;99.90
10883;DHT22;5494;51.796;10.952;2023-05-07T00:35:38;9.20;99.90
10883;DHT22;5494;51.796;10.952;2023-05-07T00:38:06;9.30;99.90
10883;DHT22;5494;51.796;10.952;2023-05-07T00:40:36;9.20;99.90
10883;DHT22;5494;51.796;10.952;2023-05-07T00:43:03;9.10;99.90
10883;DHT22;5494;51.796;10.952;2023-05-07T00:45:34;9.20;99.90
10883;DHT22;5494;51.796;10.952;2023-05-07T00:48:02;9.30;99.90
10883;DHT22;5494;51.796;10.952;2023-05-07T00:50:32;9.20;99.90
10883;DHT22;5494;51.796;10.952;2023-05-07T00:53:00;9.30;99.90
10883;DHT22;5494;51.796;10.952;2023-05-07T00:55:29;9.30;99.90
10883;DHT22;5494;51.796;10.952;2023-05-07T00:57:59;9.30;99.90
10883;DHT22;5494;51.796;10.952;2023-05-07T01:00:27;9.30;99.90
10883;DHT22;5494;51.796;10.952;2023-05-07T01:02:55;9.40;99.90
10883;DHT22;5494;51.796;10.952;2023-05-07T01:05:25;9.30;99.90
10883;DHT22;5494;51.796;10.952;2023-05-07T01:07:56;9.30;99.90
10883;DHT22;5494;51.796;10.952;2023-05-07T01:10:25;9.40;99.90
10883;DHT22;5494;51.796;10.952;2023-05-07T01:12:54;9.40;99.90
10883;DHT22;5494;51.796;10.952;2023-05-07T01:15:24;9.30;99.90
10883;DHT22;5494;51.796;10.952;2023-05-07T01:17:52;9.40;99.90
10883;DHT22;5494;51.796;10.952;2023-05-07T01:20:28;9.40;99.90
10883;DHT22;5494;51.796;10.952;2023-05-07T01:22:57;9.40;99.90
10883;DHT22;5494;51.796;10.952;2023-05-07T01:25:28;9.40;99.90
10883;DHT22;5494;51.796;10.952;2023-05-07T01:27:59;9.30;99.90
10883;DHT22;5494;51.796;10.952;2023-05-07T01:30:33;9.30;99.90
10883;DHT22;5494;51.796;10.952;2023-05-07T01:33:09;9.30;99.90
10883;DHT22;5494;51.796;10.952;2023-05-07T01:35:43;9.20;99.90
10883;DHT22;5494;51.796;10.952;2023-05-07T01:38:16;9.20;99.90
10883;DHT22;5494;51.796;10.952;2023-05-07T01:40:45;9.20;99.90
10883;DHT22;5494;51.796;10.952;2023-05-07T01:43:14;9.30;99.90
10883;DHT22;5494;51.796;10.952;2023-05-07T01:45:42;9.10;99.90
10883;DHT22;5494;51.796;10.952;2023-05-07T01:48:12;9.10;99.90
10883;DHT22;5494;51.796;10.952;2023-05-07T01:50:42;9.10;99.90
10883;DHT22;5494;51.796;10.952;2023-05-07T01:53:11;9.20;99.90
10883;DHT22;5494;51.796;10.952;2023-05-07T01:55:41;9.30;99.90
10883;DHT22;5494;51.796;10.952;2023-05-07T01:58:09;9.30;99.90
10883;DHT22;5494;51.796;10.952;2023-05-07T02:00:39;9.10;99.90
10883;DHT22;5494;51.796;10.952;2023-05-07T02:03:07;8.80;99.90
10883;DHT22;5494;51.796;10.952;2023-05-07T02:05:46;9.20;99.90
10883;DHT22;5494;51.796;10.952;2023-05-07T02:08:25;9.20;99.90
10883;DHT22;5494;51.796;10.952;2023-05-07T02:10:56;9.20;99.90
10883;DHT22;5494;51.796;10.952;2023-05-07T02:13:26;9.20;99.90
10883;DHT22;5494;51.796;10.952;2023-05-07T02:15:54;9.20;99.90
10883;DHT22;5494;51.796;10.952;2023-05-07T02:18:23;9.20;99.90
10883;DHT22;5494;51.796;10.952;2023-05-07T02:20:52;9.10;99.90
10883;DHT22;5494;51.796;10.952;2023-05-07T02:23:19;9.00;99.90
10883;DHT22;5494;51.796;10.952;2023-05-07T02:25:48;9.00;99.90
10883;DHT22;5494;51.796;10.952;2023-05-07T02:28:18;8.90;99.90
10883;DHT22;5494;51.796;10.952;2023-05-07T02:30:53;9.00;99.90
10883;DHT22;5494;51.796;10.952;2023-05-07T02:33:21;9.10;99.90
10883;DHT22;5494;51.796;10.952;2023-05-07T02:35:49;9.00;99.90
10883;DHT22;5494;51.796;10.952;2023-05-07T02:38:18;9.00;99.90
10883;DHT22;5494;51.796;10.952;2023-05-07T02:40:46;9.10;99.90
10883;DHT22;5494;51.796;10.952;2023-05-07T02:43:15;9.00;99.90
10883;DHT22;5494;51.796;10.952;2023-05-07T02:45:47;8.90;99.90
10883;DHT22;5494;51.796;10.952;2023-05-07T02:48:15;9.00;99.90
10883;DHT22;5494;51.796;10.952;2023-05-07T02:50:44;8.90;99.90
10883;DHT22;5494;51.796;10.952;2023-05-07T02:53:13;8.80;99.90
10883;DHT22;5494;51.796;10.952;2023-05-07T02:55:42;8.80;99.90
10883;DHT22;5494;51.796;10.952;2023-05-07T02:58:10;8.80;99.90
10883;DHT22;5494;51.796;10.952;2023-05-07T03:00:39;8.70;99.90
10883;DHT22;5494;51.796;10.952;2023-05-07T03:03:33;8.70;99.90
10883;DHT22;5494;51.796;10.952;2023-05-07T03:06:01;8.60;99.90
10883;DHT22;5494;51.796;10.952;2023-05-07T03:08:30;8.70;99.90
10883;DHT22;5494;51.796;10.952;2023-05-07T03:10:58;8.60;99.90
10883;DHT22;5494;51.796;10.952;2023-05-07T03:13:26;8.50;99.90
10883;DHT22;5494;51.796;10.952;2023-05-07T03:15:54;8.50;99.90
10883;DHT22;5494;51.796;10.952;2023-05-07T03:18:22;8.50;99.90
10883;DHT22;5494;51.796;10.952;2023-05-07T03:20:51;8.50;99.90
10883;DHT22;5494;51.796;10.952;2023-05-07T03:23:19;8.50;99.90
10883;DHT22;5494;51.796;10.952;2023-05-07T03:25:50;8.50;99.90
10883;DHT22;5494;51.796;10.952;2023-05-07T03:28:18;8.50;99.90
10883;DHT22;5494;51.796;10.952;2023-05-07T03:30:51;8.50;99.90
10883;DHT22;5494;51.796;10.952;2023-05-07T03:33:19;8.50;99.90
10883;DHT22;5494;51.796;10.952;2023-05-07T03:35:48;8.50;99.90
10883;DHT22;5494;51.796;10.952;2023-05-07T03:38:21;8.50;99.90
10883;DHT22;5494;51.796;10.952;2023-05-07T03:40:50;8.50;99.90
10883;DHT22;5494;51.796;10.952;2023-05-07T03:43:18;8.50;99.90
10883;DHT22;5494;51.796;10.952;2023-05-07T03:45:51;8.50;99.90
10883;DHT22;5494;51.796;10.952;2023-05-07T03:48:23;8.60;99.90
10883;DHT22;5494;51.796;10.952;2023-05-07T03:50:57;8.60;99.90
10883;DHT22;5494;51.796;10.952;2023-05-07T03:53:30;8.60;99.90
10883;DHT22;5494;51.796;10.952;2023-05-07T03:55:59;8.50;99.90
10883;DHT22;5494;51.796;10.952;2023-05-07T03:58:30;8.40;99.90
10883;DHT22;5494;51.796;10.952;2023-05-07T04:01:03;8.30;99.90
10883;DHT22;5494;51.796;10.952;2023-05-07T04:03:31;8.20;99.90
10883;DHT22;5494;51.796;10.952;2023-05-07T04:06:00;8.20;99.90
10883;DHT22;5494;51.796;10.952;2023-05-07T04:08:30;8.30;99.90
10883;DHT22;5494;51.796;10.952;2023-05-07T04:10:59;8.30;99.90
10883;DHT22;5494;51.796;10.952;2023-05-07T04:13:30;8.40;99.90
10883;DHT22;5494;51.796;10.952;2023-05-07T04:16:01;8.40;99.90
10883;DHT22;5494;51.796;10.952;2023-05-07T04:18:31;8.50;99.90
10883;DHT22;5494;51.796;10.952;2023-05-07T04:20:59;8.50;99.90
10883;DHT22;5494;51.796;10.952;2023-05-07T04:23:27;8.50;99.90
10883;DHT22;5494;51.796;10.952;2023-05-07T04:25:59;8.40;99.90
10883;DHT22;5494;51.796;10.952;2023-05-07T04:28:33;8.40;99.90
10883;DHT22;5494;51.796;10.952;2023-05-07T04:31:02;8.40;99.90
10883;DHT22;5494;51.796;10.952;2023-05-07T04:33:32;8.40;99.90
10883;DHT22;5494;51.796;10.952;2023-05-07T04:36:01;8.40;99.90
10883;DHT22;5494;51.796;10.952;2023-05-07T04:38:35;8.40;99.90
10883;DHT22;5494;51.796;10.952;2023-05-07T04:41:06;8.40;99.90
10883;DHT22;5494;51.796;10.952;2023-05-07T04:43:39;8.40;99.90
10883;DHT22;5494;51.796;10.952;2023-05-07T04:46:09;8.50;99.90
10883;DHT22;5494;51.796;10.952;2023-05-07T04:48:37;8.50;99.90
10883;DHT22;5494;51.796;10.952;2023-05-07T04:51:06;8.40;99.90
10883;DHT22;5494;51.796;10.952;2023-05-07T04:53:34;8.40;99.90
10883;DHT22;5494;51.796;10.952;2023-05-07T04:56:02;8.30;99.90
10883;DHT22;5494;51.796;10.952;2023-05-07T04:58:38;8.40;99.90
10883;DHT22;5494;51.796;10.952;2023-05-07T05:01:07;8.50;99.90
10883;DHT22;5494;51.796;10.952;2023-05-07T05:03:36;8.50;99.90
10883;DHT22;5494;51.796;10.952;2023-05-07T05:06:07;8.60;99.90
10883;DHT22;5494;51.796;10.952;2023-05-07T05:08:35;8.50;99.90
10883;DHT22;5494;51.796;10.952;2023-05-07T05:11:04;8.50;99.90
10883;DHT22;5494;51.796;10.952;2023-05-07T05:13:34;8.60;99.90
10883;DHT22;5494;51.796;10.952;2023-05-07T05:16:10;8.70;99.90
10883;DHT22;5494;51.796;10.952;2023-05-07T05:18:39;8.70;99.90
10883;DHT22;5494;51.796;10.952;2023-05-07T05:21:08;8.70;99.90
10883;DHT22;5494;51.796;10.952;2023-05-07T05:23:37;8.70;99.90
10883;DHT22;5494;51.796;10.952;2023-05-07T05:26:05;8.80;99.90
10883;DHT22;5494;51.796;10.952;2023-05-07T05:28:33;8.90;99.90
10883;DHT22;5494;51.796;10.952;2023-05-07T05:31:02;8.90;99.90
10883;DHT22;5494;51.796;10.952;2023-05-07T05:33:35;8.90;99.90
10883;DHT22;5494;51.796;10.952;2023-05-07T05:36:05;8.90;99.90
10883;DHT22;5494;51.796;10.952;2023-05-07T05:38:36;8.80;99.90
10883;DHT22;5494;51.796;10.952;2023-05-07T05:41:04;8.90;99.90
10883;DHT22;5494;51.796;10.952;2023-05-07T05:43:33;8.90;99.90
10883;DHT22;5494;51.796;10.952;2023-05-07T05:46:01;8.90;99.90
10883;DHT22;5494;51.796;10.952;2023-05-07T05:48:31;8.90;99.90
10883;DHT22;5494;51.796;10.952;2023-05-07T05:51:02;8.90;99.90
10883;DHT22;5494;51.796;10.952;2023-05-07T05:53:30;8.90;99.90
10883;DHT22;5494;51.796;10.952;2023-05-07T05:55:59;8.90;99.90
10883;DHT22;5494;51.796;10.952;2023-05-07T05:58:28;9.00;99.90
10883;DHT22;5494;51.796;10.952;2023-05-07T06:01:00;8.90;99.90
10883;DHT22;5494;51.796;10.952;2023-05-07T06:03:29;9.00;99.90
10883;DHT22;5494;51.796;10.952;2023-05-07T06:06:03;9.10;99.90
10883;DHT22;5494;51.796;10.952;2023-05-07T06:08:31;9.10;99.90
10883;DHT22;5494;51.796;10.952;2023-05-07T06:11:01;9.10;99.90
10883;DHT22;5494;51.796;10.952;2023-05-07T06:13:35;9.10;99.90
10883;DHT22;5494;51.796;10.952;2023-05-07T06:16:04;9.10;99.90
10883;DHT22;5494;51.796;10.952;2023-05-07T06:18:32;9.10;99.90
10883;DHT22;5494;51.796;10.952;2023-05-07T06:21:06;9.10;99.90
10883;DHT22;5494;51.796;10.952;2023-05-07T06:23:34;9.00;99.90
10883;DHT22;5494;51.796;10.952;2023-05-07T06:26:04;9.00;99.90
10883;DHT22;5494;51.796;10.952;2023-05-07T06:28:37;9.00;99.90
10883;DHT22;5494;51.796;10.952;2023-05-07T06:31:13;9.00;99.90
10883;DHT22;5494;51.796;10.952;2023-05-07T06:33:49;9.20;99.90
10883;DHT22;5494;51.796;10.952;2023-05-07T06:36:19;10.40;99.90
10883;DHT22;5494;51.796;10.952;2023-05-07T06:38:47;9.20;99.90
10883;DHT22;5494;51.796;10.952;2023-05-07T06:41:15;9.20;99.90
10883;DHT22;5494;51.796;10.952;2023-05-07T06:43:43;9.20;99.90
10883;DHT22;5494;51.796;10.952;2023-05-07T06:46:24;9.20;99.90
10883;DHT22;5494;51.796;10.952;2023-05-07T06:48:52;9.10;99.90
10883;DHT22;5494;51.796;10.952;2023-05-07T06:51:22;9.10;99.90
10883;DHT22;5494;51.796;10.952;2023-05-07T06:53:50;9.30;99.90
10883;DHT22;5494;51.796;10.952;2023-05-07T06:56:19;9.30;99.90
10883;DHT22;5494;51.796;10.952;2023-05-07T06:58:47;9.40;99.90
10883;DHT22;5494;51.796;10.952;2023-05-07T07:01:16;9.30;99.90
10883;DHT22;5494;51.796;10.952;2023-05-07T07:03:44;9.40;99.90
10883;DHT22;5494;51.796;10.952;2023-05-07T07:06:13;9.40;99.90
10883;DHT22;5494;51.796;10.952;2023-05-07T07:08:43;9.50;99.90
10883;DHT22;5494;51.796;10.952;2023-05-07T07:11:14;9.40;99.90
10883;DHT22;5494;51.796;10.952;2023-05-07T07:13:42;9.50;99.90
10883;DHT22;5494;51.796;10.952;2023-05-07T07:16:10;9.50;99.90
10883;DHT22;5494;51.796;10.952;2023-05-07T07:18:38;9.50;99.90
10883;DHT22;5494;51.796;10.952;2023-05-07T07:21:06;9.60;99.90
10883;DHT22;5494;51.796;10.952;2023-05-07T07:23:34;9.60;99.90
10883;DHT22;5494;51.796;10.952;2023-05-07T07:26:04;9.60;99.90
10883;DHT22;5494;51.796;10.952;2023-05-07T07:28:33;9.50;99.90
10883;DHT22;5494;51.796;10.952;2023-05-07T07:31:01;9.50;99.90
10883;DHT22;5494;51.796;10.952;2023-05-07T07:33:30;9.60;99.90
10883;DHT22;5494;51.796;10.952;2023-05-07T07:35:58;9.70;99.90
10883;DHT22;5494;51.796;10.952;2023-05-07T07:38:26;9.70;99.90
10883;DHT22;5494;51.796;10.952;2023-05-07T07:40:55;9.70;99.90
10883;DHT22;5494;51.796;10.952;2023-05-07T07:43:24;9.80;99.90
10883;DHT22;5494;51.796;10.952;2023-05-07T07:45:53;9.80;99.90
10883;DHT22;5494;51.796;10.952;2023-05-07T07:48:21;9.70;99.90
10883;DHT22;5494;51.796;10.952;2023-05-07T07:50:49;9.80;99.90
10883;DHT22;5494;51.796;10.952;2023-05-07T07:53:18;9.80;99.90
10883;DHT22;5494;51.796;10.952;2023-05-07T07:55:46;9.80;99.90
10883;DHT22;5494;51.796;10.952;2023-05-07T07:58:17;9.80;99.90
10883;DHT22;5494;51.796;10.952;2023-05-07T08:00:47;9.80;99.90
10883;DHT22;5494;51.796;10.952;2023-05-07T08:03:15;9.60;99.90
10883;DHT22;5494;51.796;10.952;2023-05-07T08:05:48;9.50;99.90
10883;DHT22;5494;51.796;10.952;2023-05-07T08:08:17;9.60;99.90
10883;DHT22;5494;51.796;10.952;2023-05-07T08:10:45;9.60;99.90
10883;DHT22;5494;51.796;10.952;2023-05-07T08:13:23;9.70;99.90
10883;DHT22;5494;51.796;10.952;2023-05-07T08:15:53;9.70;99.90
10883;DHT22;5494;51.796;10.952;2023-05-07T08:18:21;9.80;99.90
10883;DHT22;5494;51.796;10.952;2023-05-07T08:20:51;9.90;99.90
10883;DHT22;5494;51.796;10.952;2023-05-07T08:23:22;9.90;99.90
10883;DHT22;5494;51.796;10.952;2023-05-07T08:25:50;9.90;99.90
10883;DHT22;5494;51.796;10.952;2023-05-07T08:28:19;9.80;99.90
10883;DHT22;5494;51.796;10.952;2023-05-07T08:30:48;9.70;99.90
10883;DHT22;5494;51.796;10.952;2023-05-07T08:33:17;9.80;99.90
10883;DHT22;5494;51.796;10.952;2023-05-07T08:35:45;9.70;99.90
10883;DHT22;5494;51.796;10.952;2023-05-07T08:38:14;9.80;99.90
10883;DHT22;5494;51.796;10.952;2023-05-07T08:40:42;9.80;99.90
10883;DHT22;5494;51.796;10.952;2023-05-07T08:43:17;9.70;99.90
10883;DHT22;5494;51.796;10.952;2023-05-07T08:45:49;9.80;99.90
10883;DHT22;5494;51.796;10.952;2023-05-07T08:48:27;9.90;99.90
10883;DHT22;5494;51.796;10.952;2023-05-07T08:51:05;11.40;99.90
10883;DHT22;5494;51.796;10.952;2023-05-07T08:53:34;10.20;99.90
10883;DHT22;5494;51.796;10.952;2023-05-07T08:56:04;10.20;99.90
10883;DHT22;5494;51.796;10.952;2023-05-07T08:58:34;10.10;99.90
10883;DHT22;5494;51.796;10.952;2023-05-07T09:01:05;10.00;99.90
10883;DHT22;5494;51.796;10.952;2023-05-07T09:03:38;10.10;99.90
10883;DHT22;5494;51.796;10.952;2023-05-07T09:06:07;10.00;99.90
10883;DHT22;5494;51.796;10.952;2023-05-07T09:08:36;10.00;99.90
10883;DHT22;5494;51.796;10.952;2023-05-07T09:11:05;10.00;99.90
10883;DHT22;5494;51.796;10.952;2023-05-07T09:13:33;9.90;99.90
10883;DHT22;5494;51.796;10.952;2023-05-07T09:16:12;9.90;99.90
10883;DHT22;5494;51.796;10.952;2023-05-07T09:18:45;9.90;99.90
10883;DHT22;5494;51.796;10.952;2023-05-07T09:21:18;9.90;99.90
10883;DHT22;5494;51.796;10.952;2023-05-07T09:23:51;9.90;99.90
10883;DHT22;5494;51.796;10.952;2023-05-07T09:26:25;10.00;99.90
10883;DHT22;5494;51.796;10.952;2023-05-07T09:28:55;10.10;99.90
10883;DHT22;5494;51.796;10.952;2023-05-07T09:31:23;10.10;99.90
10883;DHT22;5494;51.796;10.952;2023-05-07T09:33:55;10.10;99.90
10883;DHT22;5494;51.796;10.952;2023-05-07T09:36:27;10.20;99.90
10883;DHT22;5494;51.796;10.952;2023-05-07T09:38:59;10.30;99.90
10883;DHT22;5494;51.796;10.952;2023-05-07T09:41:30;10.30;99.90
10883;DHT22;5494;51.796;10.952;2023-05-07T09:44:08;10.20;99.90
10883;DHT22;5494;51.796;10.952;2023-05-07T09:46:43;10.30;99.90
10883;DHT22;5494;51.796;10.952;2023-05-07T09:49:23;10.50;99.90
10883;DHT22;5494;51.796;10.952;2023-05-07T09:52:00;10.50;99.90
10883;DHT22;5494;51.796;10.952;2023-05-07T09:54:33;10.60;99.90
10883;DHT22;5494;51.796;10.952;2023-05-07T09:57:05;10.50;99.90
10883;DHT22;5494;51.796;10.952;2023-05-07T09:59:37;10.60;99.90
10883;DHT22;5494;51.796;10.952;2023-05-07T10:02:09;10.60;99.90
10883;DHT22;5494;51.796;10.952;2023-05-07T10:04:48;10.50;99.90
10883;DHT22;5494;51.796;10.952;2023-05-07T10:07:21;10.50;99.90
10883;DHT22;5494;51.796;10.952;2023-05-07T10:09:54;10.50;99.90
10883;DHT22;5494;51.796;10.952;2023-05-07T10:12:30;10.50;99.90
10883;DHT22;5494;51.796;10.952;2023-05-07T10:15:07;10.50;99.90
10883;DHT22;5494;51.796;10.952;2023-05-07T10:17:40;10.50;99.90
10883;DHT22;5494;51.796;10.952;2023-05-07T10:20:11;10.60;99.90
10883;DHT22;5494;51.796;10.952;2023-05-07T10:22:43;10.80;99.90
10883;DHT22;5494;51.796;10.952;2023-05-07T10:25:19;10.70;99.90
10883;DHT22;5494;51.796;10.952;2023-05-07T10:27:51;10.60;99.90
10883;DHT22;5494;51.796;10.952;2023-05-07T10:30:30;10.70;99.90
10883;DHT22;5494;51.796;10.952;2023-05-07T10:33:10;10.90;99.90
10883;DHT22;5494;51.796;10.952;2023-05-07T10:35:46;10.90;99.90
10883;DHT22;5494;51.796;10.952;2023-05-07T10:38:16;10.80;99.90
10883;DHT22;5494;51.796;10.952;2023-05-07T10:40:46;10.80;99.90
10883;DHT22;5494;51.796;10.952;2023-05-07T10:43:16;10.80;99.90
10883;DHT22;5494;51.796;10.952;2023-05-07T10:46:09;11.00;99.90
10883;DHT22;5494;51.796;10.952;2023-05-07T10:49:11;10.80;99.90
10883;DHT22;5494;51.796;10.952;2023-05-07T10:51:45;10.70;99.90
10883;DHT22;5494;51.796;10.952;2023-05-07T10:55:19;10.70;99.90
10883;DHT22;5494;51.796;10.952;2023-05-07T10:58:24;10.70;99.90
10883;DHT22;5494;51.796;10.952;2023-05-07T11:01:08;10.80;99.90
10883;DHT22;5494;51.796;10.952;2023-05-07T11:04:13;10.90;99.90
10883;DHT22;5494;51.796;10.952;2023-05-07T11:10:07;11.00;99.90
10883;DHT22;5494;51.796;10.952;2023-05-07T11:12:56;11.10;99.90
10883;DHT22;5494;51.796;10.952;2023-05-07T11:15:40;11.30;99.90
10883;DHT22;5494;51.796;10.952;2023-05-07T11:18:17;11.10;99.90
10883;DHT22;5494;51.796;10.952;2023-05-07T11:20:50;11.20;99.90
10883;DHT22;5494;51.796;10.952;2023-05-07T11:23:56;11.20;99.90
10883;DHT22;5494;51.796;10.952;2023-05-07T11:26:42;11.20;99.90
10883;DHT22;5494;51.796;10.952;2023-05-07T11:29:17;11.40;99.90
10883;DHT22;5494;51.796;10.952;2023-05-07T11:31:51;11.50;99.90
10883;DHT22;5494;51.796;10.952;2023-05-07T11:34:23;11.50;99.90
10883;DHT22;5494;51.796;10.952;2023-05-07T11:36:55;11.40;99.90
10883;DHT22;5494;51.796;10.952;2023-05-07T11:39:37;11.30;99.90
10883;DHT22;5494;51.796;10.952;2023-05-07T11:42:05;11.20;99.90
10883;DHT22;5494;51.796;10.952;2023-05-07T11:44:42;11.30;99.90
10883;DHT22;5494;51.796;10.952;2023-05-07T11:47:17;11.50;99.90
10883;DHT22;5494;51.796;10.952;2023-05-07T11:49:47;11.50;99.90
10883;DHT22;5494;51.796;10.952;2023-05-07T11:52:16;11.40;99.90
10883;DHT22;5494;51.796;10.952;2023-05-07T11:54:50;11.30;99.90
10883;DHT22;5494;51.796;10.952;2023-05-07T11:57:18;11.30;99.90
10883;DHT22;5494;51.796;10.952;2023-05-07T11:59:46;11.20;99.90
10883;DHT22;5494;51.796;10.952;2023-05-07T12:02:16;11.30;99.90
10883;DHT22;5494;51.796;10.952;2023-05-07T12:04:45;11.30;99.90
10883;DHT22;5494;51.796;10.952;2023-05-07T12:07:13;11.20;99.90
10883;DHT22;5494;51.796;10.952;2023-05-07T12:09:42;11.10;99.90
10883;DHT22;5494;51.796;10.952;2023-05-07T12:12:12;11.30;99.90
10883;DHT22;5494;51.796;10.952;2023-05-07T12:14:43;11.40;99.90
10883;DHT22;5494;51.796;10.952;2023-05-07T12:17:14;11.40;99.90
10883;DHT22;5494;51.796;10.952;2023-05-07T12:19:44;11.50;99.90
10883;DHT22;5494;51.796;10.952;2023-05-07T12:22:14;11.70;99.90
10883;DHT22;5494;51.796;10.952;2023-05-07T12:24:44;11.60;99.90
10883;DHT22;5494;51.796;10.952;2023-05-07T12:27:14;11.50;99.90
10883;DHT22;5494;51.796;10.952;2023-05-07T12:29:44;11.30;99.90
10883;DHT22;5494;51.796;10.952;2023-05-07T12:32:13;11.30;99.90
10883;DHT22;5494;51.796;10.952;2023-05-07T12:34:42;11.10;99.90
10883;DHT22;5494;51.796;10.952;2023-05-07T12:37:11;11.20;99.90
10883;DHT22;5494;51.796;10.952;2023-05-07T12:39:44;11.30;99.90
10883;DHT22;5494;51.796;10.952;2023-05-07T12:42:16;11.40;99.90
10883;DHT22;5494;51.796;10.952;2023-05-07T12:44:50;11.30;99.90
10883;DHT22;5494;51.796;10.952;2023-05-07T12:47:18;11.30;99.90
10883;DHT22;5494;51.796;10.952;2023-05-07T12:49:48;11.20;99.90
10883;DHT22;5494;51.796;10.952;2023-05-07T12:52:16;11.30;99.90
10883;DHT22;5494;51.796;10.952;2023-05-07T12:54:44;11.30;99.90
10883;DHT22;5494;51.796;10.952;2023-05-07T12:57:12;11.40;99.90
10883;DHT22;5494;51.796;10.952;2023-05-07T12:59:42;11.50;99.90
10883;DHT22;5494;51.796;10.952;2023-05-07T13:02:10;11.30;99.90
10883;DHT22;5494;51.796;10.952;2023-05-07T13:04:39;11.30;99.90
10883;DHT22;5494;51.796;10.952;2023-05-07T13:07:08;11.40;99.90
10883;DHT22;5494;51.796;10.952;2023-05-07T13:09:36;11.40;99.90
10883;DHT22;5494;51.796;10.952;2023-05-07T13:12:04;11.60;99.90
10883;DHT22;5494;51.796;10.952;2023-05-07T13:14:33;11.40;99.90
10883;DHT22;5494;51.796;10.952;2023-05-07T13:17:03;11.50;99.90
10883;DHT22;5494;51.796;10.952;2023-05-07T13:19:31;11.70;99.90
10883;DHT22;5494;51.796;10.952;2023-05-07T13:21:59;11.80;99.90
10883;DHT22;5494;51.796;10.952;2023-05-07T13:24:27;11.80;99.90
10883;DHT22;5494;51.796;10.952;2023-05-07T13:26:55;10.80;99.90
10883;DHT22;5494;51.796;10.952;2023-05-07T13:29:23;11.70;99.90
10883;DHT22;5494;51.796;10.952;2023-05-07T13:31:56;11.80;99.90
10883;DHT22;5494;51.796;10.952;2023-05-07T13:34:26;11.80;99.90
10883;DHT22;5494;51.796;10.952;2023-05-07T13:36:55;11.60;99.90
10883;DHT22;5494;51.796;10.952;2023-05-07T13:39:23;11.70;99.90
10883;DHT22;5494;51.796;10.952;2023-05-07T13:41:51;11.80;99.90
10883;DHT22;5494;51.796;10.952;2023-05-07T13:44:19;11.70;99.90
10883;DHT22;5494;51.796;10.952;2023-05-07T13:46:47;11.50;99.90
10883;DHT22;5494;51.796;10.952;2023-05-07T13:49:15;11.50;99.90
10883;DHT22;5494;51.796;10.952;2023-05-07T13:51:44;11.50;99.90
10883;DHT22;5494;51.796;10.952;2023-05-07T13:54:12;11.60;99.90
10883;DHT22;5494;51.796;10.952;2023-05-07T13:56:40;11.70;99.90
10883;DHT22;5494;51.796;10.952;2023-05-07T13:59:08;11.80;99.90
10883;DHT22;5494;51.796;10.952;2023-05-07T14:01:36;11.90;99.90
10883;DHT22;5494;51.796;10.952;2023-05-07T14:04:04;11.90;99.90
10883;DHT22;5494;51.796;10.952;2023-05-07T14:06:32;11.90;99.90
10883;DHT22;5494;51.796;10.952;2023-05-07T14:09:01;12.00;99.90
10883;DHT22;5494;51.796;10.952;2023-05-07T14:11:30;12.10;99.90
10883;DHT22;5494;51.796;10.952;2023-05-07T14:14:01;12.10;99.90
10883;DHT22;5494;51.796;10.952;2023-05-07T14:16:29;11.80;99.90
10883;DHT22;5494;51.796;10.952;2023-05-07T14:18:57;11.80;99.90
10883;DHT22;5494;51.796;10.952;2023-05-07T14:21:25;11.70;99.90
10883;DHT22;5494;51.796;10.952;2023-05-07T14:23:52;11.70;99.90
10883;DHT22;5494;51.796;10.952;2023-05-07T14:26:24;11.60;99.90
10883;DHT22;5494;51.796;10.952;2023-05-07T14:28:53;11.80;99.90
10883;DHT22;5494;51.796;10.952;2023-05-07T14:31:24;11.80;99.90
10883;DHT22;5494;51.796;10.952;2023-05-07T14:33:52;11.80;99.90
10883;DHT22;5494;51.796;10.952;2023-05-07T14:36:20;11.90;99.90
10883;DHT22;5494;51.796;10.952;2023-05-07T14:38:49;11.90;99.90
10883;DHT22;5494;51.796;10.952;2023-05-07T14:41:17;11.90;99.90
10883;DHT22;5494;51.796;10.952;2023-05-07T14:43:46;12.00;99.90
10883;DHT22;5494;51.796;10.952;2023-05-07T14:46:17;12.00;99.90
10883;DHT22;5494;51.796;10.952;2023-05-07T14:48:45;12.00;99.90
10883;DHT22;5494;51.796;10.952;2023-05-07T14:51:13;12.10;99.90
10883;DHT22;5494;51.796;10.952;2023-05-07T14:53:42;12.30;99.90
10883;DHT22;5494;51.796;10.952;2023-05-07T14:56:10;12.40;99.90
10883;DHT22;5494;51.796;10.952;2023-05-07T14:58:38;12.30;99.90
10883;DHT22;5494;51.796;10.952;2023-05-07T15:01:07;12.30;99.90
10883;DHT22;5494;51.796;10.952;2023-05-07T15:03:35;12.30;99.90
10883;DHT22;5494;51.796;10.952;2023-05-07T15:06:04;12.40;99.90
10883;DHT22;5494;51.796;10.952;2023-05-07T15:08:32;12.50;99.90
10883;DHT22;5494;51.796;10.952;2023-05-07T15:11:00;12.60;99.90
10883;DHT22;5494;51.796;10.952;2023-05-07T15:13:28;12.50;99.90
10883;DHT22;5494;51.796;10.952;2023-05-07T15:15:56;12.10;99.90
10883;DHT22;5494;51.796;10.952;2023-05-07T15:18:25;11.90;99.90
10883;DHT22;5494;51.796;10.952;2023-05-07T15:20:53;12.00;99.90
10883;DHT22;5494;51.796;10.952;2023-05-07T15:23:23;12.00;99.90
10883;DHT22;5494;51.796;10.952;2023-05-07T15:25:51;12.10;99.90
10883;DHT22;5494;51.796;10.952;2023-05-07T15:28:19;12.20;99.90
10883;DHT22;5494;51.796;10.952;2023-05-07T15:30:47;12.20;99.90
10883;DHT22;5494;51.796;10.952;2023-05-07T15:33:16;12.10;99.90
10883;DHT22;5494;51.796;10.952;2023-05-07T15:35:45;12.10;99.90
10883;DHT22;5494;51.796;10.952;2023-05-07T15:38:13;12.10;99.90
10883;DHT22;5494;51.796;10.952;2023-05-07T15:40:42;12.00;99.90
10883;DHT22;5494;51.796;10.952;2023-05-07T15:43:11;11.90;99.90
10883;DHT22;5494;51.796;10.952;2023-05-07T15:45:40;11.90;99.90
10883;DHT22;5494;51.796;10.952;2023-05-07T15:48:09;11.80;99.90
10883;DHT22;5494;51.796;10.952;2023-05-07T15:50:38;11.80;99.90
10883;DHT22;5494;51.796;10.952;2023-05-07T15:53:07;11.70;99.90
10883;DHT22;5494;51.796;10.952;2023-05-07T15:55:36;11.80;99.90
10883;DHT22;5494;51.796;10.952;2023-05-07T15:58:04;11.90;99.90
10883;DHT22;5494;51.796;10.952;2023-05-07T16:00:32;13.10;99.90
10883;DHT22;5494;51.796;10.952;2023-05-07T16:03:01;12.00;99.90
10883;DHT22;5494;51.796;10.952;2023-05-07T16:05:30;11.90;99.90